createdAt,value
2023-04-18T00:00:06.132Z,95866.3047
2023-04-18T00:01:07.133Z,95864.0781
2023-04-18T00:02:08.263Z,95864.0000
2023-04-18T00:03:09.528Z,95863.6953
2023-04-18T00:04:10.524Z,95862.4609
2023-04-18T00:05:11.429Z,95861.7656
2023-04-18T00:06:12.355Z,95863.2344
2023-04-18T00:07:13.390Z,95862.9219
2023-04-18T00:08:14.477Z,95860.3828
2023-04-18T00:09:15.486Z,95860.3828
2023-04-18T00:10:16.511Z,95857.9219
2023-04-18T00:11:17.532Z,95859.4609
2023-04-18T00:12:18.570Z,95861.2344
2023-04-18T00:13:19.673Z,95859.4609
2023-04-18T00:14:20.664Z,95858.8438
2023-04-18T00:15:21.695Z,95859.1562
2023-04-18T00:16:22.816Z,95859.1562
2023-04-18T00:17:23.825Z,95861.5391
2023-04-18T00:18:24.851Z,95860.8438
2023-04-18T00:19:25.856Z,95861.6172
2023-04-18T00:20:26.893Z,95861.4609
2023-04-18T00:21:27.963Z,95861.3047
2023-04-18T00:22:28.973Z,95862.6953
2023-04-18T00:23:30.055Z,95863.4609
2023-04-18T00:24:31.030Z,95862.2344
2023-04-18T00:25:32.117Z,95861.9219
2023-04-18T00:26:33.109Z,95861.5391
2023-04-18T00:27:34.176Z,95862.0781
2023-04-18T00:28:35.267Z,95862.6953
2023-04-18T00:29:36.237Z,95857.5391
2023-04-18T00:30:37.354Z,95856.8438
2023-04-18T00:31:38.323Z,95856.9219
2023-04-18T00:32:39.410Z,95855.7656
2023-04-18T00:33:40.461Z,95854.2344
2023-04-18T00:34:41.462Z,95851.9219
2023-04-18T00:35:42.475Z,95852.5391
2023-04-18T00:36:43.546Z,95854.8438
2023-04-18T00:37:44.615Z,95861.5391
2023-04-18T00:38:45.658Z,95857.1562
2023-04-18T00:39:46.621Z,95855.5391
2023-04-18T00:40:47.689Z,95855.8438
2023-04-18T00:41:48.687Z,95855.6953
2023-04-18T00:42:49.754Z,95855.0781
2023-04-18T00:43:50.737Z,95855.8438
2023-04-18T00:44:51.731Z,95855.3828
2023-04-18T00:45:52.754Z,95857.1562
2023-04-18T00:46:53.792Z,95857.9219
2023-04-18T00:47:54.884Z,95855.2344
2023-04-18T00:48:55.893Z,95854.5391
2023-04-18T00:49:56.941Z,95852.3047
2023-04-18T00:50:57.944Z,95855.6953
2023-04-18T00:51:58.996Z,95852.2344
2023-04-18T00:53:00.048Z,95853.6953
2023-04-18T00:54:01.124Z,95852.8438
2023-04-18T00:55:02.115Z,95851.5391
2023-04-18T00:56:03.170Z,95852.2344
2023-04-18T00:57:04.196Z,95854.3828
2023-04-18T00:58:05.241Z,95854.6953
2023-04-18T00:59:06.314Z,95849.7656
2023-04-18T01:00:07.312Z,95851.2344
2023-04-18T01:01:08.393Z,95850.1562
2023-04-18T01:02:09.420Z,95848.8438
2023-04-18T01:03:10.715Z,95848.1562
2023-04-18T01:04:11.699Z,95848.0781
2023-04-18T01:05:12.503Z,95847.4609
2023-04-18T01:06:13.545Z,95846.0781
2023-04-18T01:07:14.577Z,95843.6953
2023-04-18T01:08:15.619Z,95843.0000
2023-04-18T01:09:16.712Z,95843.3047
2023-04-18T01:10:17.709Z,95841.0781
2023-04-18T01:11:18.754Z,95842.3047
2023-04-18T01:12:19.781Z,95839.7656
2023-04-18T01:13:20.826Z,95838.1562
2023-04-18T01:14:21.916Z,95837.9219
2023-04-18T01:15:22.946Z,95837.5391
2023-04-18T01:16:24.069Z,95834.4609
2023-04-18T01:17:25.015Z,95834.0781
2023-04-18T01:18:26.007Z,95834.0781
2023-04-18T01:19:27.115Z,95835.6172
2023-04-18T01:20:28.110Z,95836.0000
2023-04-18T01:21:29.164Z,95836.6172
2023-04-18T01:22:30.187Z,95835.3047
2023-04-18T01:23:31.240Z,95837.0781
2023-04-18T01:24:32.297Z,95836.7656
2023-04-18T01:25:33.303Z,95836.3828
2023-04-18T01:26:34.351Z,95831.3047
2023-04-18T01:27:35.382Z,95830.1562
2023-04-18T01:28:36.428Z,95828.5391
2023-04-18T01:29:38.959Z,95828.5391
2023-04-18T01:30:38.583Z,95825.1562
2023-04-18T01:31:39.596Z,95822.9219
2023-04-18T01:32:40.736Z,95821.4609
2023-04-18T01:33:41.643Z,95821.5391
2023-04-18T01:34:42.707Z,95821.3047
2023-04-18T01:35:43.735Z,95819.6953
2023-04-18T01:36:44.765Z,95819.8438
2023-04-18T01:37:45.809Z,95822.0000
2023-04-18T01:38:46.848Z,95818.4609
2023-04-18T01:39:47.919Z,95818.8438
2023-04-18T01:40:48.917Z,95816.0781
2023-04-18T01:41:49.946Z,95814.5391
2023-04-18T01:42:51.009Z,95813.2344
2023-04-18T01:43:52.034Z,95813.3047
2023-04-18T01:44:53.109Z,95813.9219
2023-04-18T01:45:54.104Z,95812.6953
2023-04-18T01:46:55.204Z,95814.3828
2023-04-18T01:47:56.272Z,95813.0000
2023-04-18T01:48:57.234Z,95810.0000
2023-04-18T01:49:58.286Z,95809.0781
2023-04-18T01:50:59.310Z,95808.6172
2023-04-18T01:52:00.360Z,95808.3828
2023-04-18T01:53:01.394Z,95807.0781
2023-04-18T01:54:02.425Z,95810.0000
2023-04-18T01:55:03.480Z,95807.0781
2023-04-18T01:56:04.497Z,95807.7656
2023-04-18T01:57:05.539Z,95806.5391
2023-04-18T01:58:06.577Z,95807.9219
2023-04-18T01:59:07.620Z,95806.4609
2023-04-18T02:00:08.682Z,95805.1562
2023-04-18T02:01:09.734Z,95807.5391
2023-04-18T02:02:10.822Z,95806.3828
2023-04-18T02:03:11.832Z,95805.6953
2023-04-18T02:04:13.158Z,95804.7656
2023-04-18T02:05:13.879Z,95803.3828
2023-04-18T02:06:14.954Z,95802.5391
2023-04-18T02:07:15.967Z,95803.0000
2023-04-18T02:08:16.945Z,95801.6953
2023-04-18T02:09:17.992Z,95800.6172
2023-04-18T02:10:19.068Z,95802.8438
2023-04-18T02:11:20.111Z,95800.1562
2023-04-18T02:12:21.118Z,95799.5391
2023-04-18T02:13:22.157Z,95801.0781
2023-04-18T02:14:23.181Z,95799.6172
2023-04-18T02:15:24.263Z,95796.5391
2023-04-18T02:16:25.281Z,95798.1562
2023-04-18T02:17:26.293Z,95795.7656
2023-04-18T02:18:27.359Z,95794.8438
2023-04-18T02:19:28.379Z,95795.1562
2023-04-18T02:20:29.436Z,95793.7656
2023-04-18T02:21:30.487Z,95794.7656
2023-04-18T02:22:31.510Z,95793.6172
2023-04-18T02:23:32.565Z,95798.0000
2023-04-18T02:24:33.594Z,95796.5391
2023-04-18T02:25:34.675Z,95794.3047
2023-04-18T02:26:35.706Z,95794.1562
2023-04-18T02:27:36.718Z,95795.5391
2023-04-18T02:28:37.754Z,95795.7656
2023-04-18T02:29:38.816Z,95792.8438
2023-04-18T02:30:39.896Z,95790.4609
2023-04-18T02:31:40.902Z,95789.8438
2023-04-18T02:32:41.922Z,95792.3828
2023-04-18T02:33:42.936Z,95790.8438
2023-04-18T02:34:43.998Z,95789.6953
2023-04-18T02:35:45.045Z,95788.3047
2023-04-18T02:36:46.083Z,95791.0000
2023-04-18T02:37:47.113Z,95790.2344
2023-04-18T02:38:48.160Z,95790.6172
2023-04-18T02:39:49.209Z,95788.3047
2023-04-18T02:40:50.253Z,95788.3047
2023-04-18T02:41:51.321Z,95789.1562
2023-04-18T02:42:52.373Z,95789.5391
2023-04-18T02:43:53.369Z,95790.8438
2023-04-18T02:44:54.398Z,95788.2344
2023-04-18T02:45:55.499Z,95788.5391
2023-04-18T02:46:56.469Z,95785.8438
2023-04-18T02:47:57.580Z,95784.9219
2023-04-18T02:48:58.572Z,95785.5391
2023-04-18T02:49:59.631Z,95786.1562
2023-04-18T02:51:00.695Z,95785.4609
2023-04-18T02:52:01.709Z,95785.6953
2023-04-18T02:53:02.768Z,95787.0000
2023-04-18T02:54:03.828Z,95790.0781
2023-04-18T02:55:04.832Z,95788.3828
2023-04-18T02:56:05.929Z,95787.8438
2023-04-18T02:57:06.932Z,95787.3828
2023-04-18T02:58:07.998Z,95786.5391
2023-04-18T02:59:08.996Z,95786.5391
2023-04-18T03:00:10.041Z,95785.3828
2023-04-18T03:01:11.141Z,95783.8438
2023-04-18T03:02:12.129Z,95783.3828
2023-04-18T03:03:13.229Z,95783.2344
2023-04-18T03:04:14.464Z,95783.5391
2023-04-18T03:05:15.217Z,95784.3828
2023-04-18T03:06:16.379Z,95782.6953
2023-04-18T03:07:17.325Z,95783.5391
2023-04-18T03:08:18.360Z,95783.1562
2023-04-18T03:09:19.411Z,95782.3828
2023-04-18T03:10:20.494Z,95782.6953
2023-04-18T03:11:21.574Z,95780.5391
2023-04-18T03:12:22.589Z,95776.9219
2023-04-18T03:13:23.661Z,95776.2344
2023-04-18T03:14:24.672Z,95778.0781
2023-04-18T03:15:25.718Z,95776.6172
2023-04-18T03:16:26.829Z,95773.6172
2023-04-18T03:17:27.806Z,95774.2344
2023-04-18T03:18:28.867Z,95773.5391
2023-04-18T03:19:29.858Z,95772.6172
2023-04-18T03:20:30.918Z,95771.6953
2023-04-18T03:21:32.001Z,95773.7656
2023-04-18T03:22:33.042Z,95772.0000
2023-04-18T03:23:34.052Z,95770.5391
2023-04-18T03:24:35.121Z,95771.9219
2023-04-18T03:25:36.129Z,95772.3047
2023-04-18T03:26:37.207Z,95772.3047
2023-04-18T03:27:38.267Z,95773.3828
2023-04-18T03:28:39.285Z,95771.6953
2023-04-18T03:29:40.295Z,95772.9219
2023-04-18T03:30:41.336Z,95774.1562
2023-04-18T03:31:42.523Z,95773.5391
2023-04-18T03:32:43.525Z,95772.6953
2023-04-18T03:33:44.475Z,95772.9219
2023-04-18T03:34:45.516Z,95773.0000
2023-04-18T03:35:46.535Z,95774.3047
2023-04-18T03:36:48.156Z,95772.0781
2023-04-18T03:37:48.615Z,95772.7656
2023-04-18T03:38:49.756Z,95774.0781
2023-04-18T03:39:50.717Z,95773.1562
2023-04-18T03:40:51.736Z,95773.3828
2023-04-18T03:41:52.773Z,95773.8438
2023-04-18T03:42:53.851Z,95775.2344
2023-04-18T03:43:54.866Z,95772.7656
2023-04-18T03:44:55.880Z,95773.1562
2023-04-18T03:45:57.131Z,95774.1562
2023-04-18T03:46:57.958Z,95773.6172
2023-04-18T03:47:59.041Z,95773.1562
2023-04-18T03:49:00.036Z,95771.6172
2023-04-18T03:50:01.064Z,95771.8438
2023-04-18T03:51:02.103Z,95770.2344
2023-04-18T03:52:03.155Z,95769.6953
2023-04-18T03:53:04.213Z,95773.0781
2023-04-18T03:54:05.255Z,95768.3047
2023-04-18T03:55:06.257Z,95769.7656
2023-04-18T03:56:07.326Z,95768.6172
2023-04-18T03:57:08.517Z,95767.9219
2023-04-18T03:58:09.457Z,95767.8438
2023-04-18T03:59:10.460Z,95765.7656
2023-04-18T04:00:11.464Z,95766.5391
2023-04-18T04:01:12.498Z,95766.8438
2023-04-18T04:02:13.592Z,95767.6172
2023-04-18T04:03:14.698Z,95767.3828
2023-04-18T04:04:16.216Z,95768.4609
2023-04-18T04:05:16.677Z,95769.3047
2023-04-18T04:06:17.744Z,95768.3047
2023-04-18T04:07:18.741Z,95768.0000
2023-04-18T04:08:19.842Z,95768.0781
2023-04-18T04:09:20.835Z,95765.0000
2023-04-18T04:10:21.877Z,95765.6172
2023-04-18T04:11:23.110Z,95766.3828
2023-04-18T04:12:23.944Z,95768.4609
2023-04-18T04:13:24.998Z,95767.7656
2023-04-18T04:14:26.150Z,95767.2344
2023-04-18T04:15:27.081Z,95766.9219
2023-04-18T04:16:28.294Z,95768.5391
2023-04-18T04:17:29.339Z,95768.2344
2023-04-18T04:18:30.222Z,95769.3047
2023-04-18T04:19:31.247Z,95769.3828
2023-04-18T04:20:32.271Z,95770.5391
2023-04-18T04:21:33.282Z,95770.0000
2023-04-18T04:22:34.360Z,95770.9219
2023-04-18T04:23:35.438Z,95770.7656
2023-04-18T04:24:36.445Z,95771.3828
2023-04-18T04:25:37.448Z,95772.3047
2023-04-18T04:26:38.634Z,95773.9219
2023-04-18T04:27:39.545Z,95773.6953
2023-04-18T04:28:40.624Z,95775.9219
2023-04-18T04:29:41.650Z,95775.3828
2023-04-18T04:30:42.656Z,95773.0781
2023-04-18T04:31:43.813Z,95773.6172
2023-04-18T04:32:44.781Z,95775.9219
2023-04-18T04:33:45.810Z,95776.2344
2023-04-18T04:34:46.828Z,95776.0781
2023-04-18T04:35:47.886Z,95776.9219
2023-04-18T04:36:48.909Z,95778.4609
2023-04-18T04:37:49.938Z,95778.0781
2023-04-18T04:38:51.018Z,95777.4609
2023-04-18T04:39:52.000Z,95777.3047
2023-04-18T04:40:53.052Z,95777.5391
2023-04-18T04:41:54.120Z,95779.0781
2023-04-18T04:42:55.115Z,95781.0781
2023-04-18T04:43:56.179Z,95780.9219
2023-04-18T04:44:57.275Z,95781.3047
2023-04-18T04:45:58.253Z,95783.0000
2023-04-18T04:46:59.438Z,95781.3047
2023-04-18T04:48:00.400Z,95782.0781
2023-04-18T04:49:01.401Z,95785.0781
2023-04-18T04:50:02.388Z,95786.2344
2023-04-18T04:51:03.596Z,95785.6953
2023-04-18T04:52:04.464Z,95786.0781
2023-04-18T04:53:05.502Z,95784.3047
2023-04-18T04:54:06.551Z,95785.0781
2023-04-18T04:55:07.697Z,95787.0781
2023-04-18T04:56:08.629Z,95786.4609
2023-04-18T04:57:09.669Z,95785.1562
2023-04-18T04:58:10.698Z,95787.5391
2023-04-18T04:59:11.738Z,95789.3828
2023-04-18T05:00:12.745Z,95789.0781
2023-04-18T05:01:13.874Z,95787.0781
2023-04-18T05:02:14.959Z,95788.6953
2023-04-18T05:03:16.070Z,95788.6172
2023-04-18T05:04:17.477Z,95789.8438
2023-04-18T05:05:18.073Z,95787.4609
2023-04-18T05:06:19.061Z,95787.6172
2023-04-18T05:07:20.212Z,95789.8438
2023-04-18T05:08:21.134Z,95789.0000
2023-04-18T05:09:22.301Z,95790.2344
2023-04-18T05:10:23.202Z,95792.3047
2023-04-18T05:11:24.254Z,95793.1562
2023-04-18T05:12:25.295Z,95792.1562
2023-04-18T05:13:26.340Z,95791.0000
2023-04-18T05:14:27.419Z,95791.3828
2023-04-18T05:15:28.425Z,95792.0781
2023-04-18T05:16:29.456Z,95792.4609
2023-04-18T05:17:30.510Z,95792.4609
2023-04-18T05:18:33.059Z,95792.6953
2023-04-18T05:19:32.599Z,95792.0000
2023-04-18T05:20:33.579Z,95792.4609
2023-04-18T05:21:34.610Z,95793.3828
2023-04-18T05:22:35.722Z,95794.9219
2023-04-18T05:23:36.681Z,95796.8438
2023-04-18T05:24:37.800Z,95796.2344
2023-04-18T05:25:38.767Z,95796.4609
2023-04-18T05:26:39.794Z,95794.4609
2023-04-18T05:27:40.870Z,95796.6953
2023-04-18T05:28:41.907Z,95797.7656
2023-04-18T05:29:42.970Z,95796.0000
2023-04-18T05:30:44.024Z,95794.2344
2023-04-18T05:31:44.999Z,95796.1562
2023-04-18T05:32:46.190Z,95795.3828
2023-04-18T05:33:47.086Z,95797.4609
2023-04-18T05:34:48.167Z,95797.0000
2023-04-18T05:35:49.181Z,95798.4609
2023-04-18T05:36:50.263Z,95797.8438
2023-04-18T05:37:51.202Z,95798.0000
2023-04-18T05:38:52.276Z,95800.4609
2023-04-18T05:39:53.350Z,95800.6953
2023-04-18T05:40:54.363Z,95802.4609
2023-04-18T05:41:55.391Z,95801.0781
2023-04-18T05:42:56.417Z,95802.8438
2023-04-18T05:44:04.923Z,95803.3047
2023-04-18T05:44:58.535Z,95804.0781
2023-04-18T05:45:59.623Z,95803.9219
2023-04-18T05:47:00.560Z,95806.6172
2023-04-18T05:48:01.833Z,95807.7656
2023-04-18T05:49:02.632Z,95805.8438
2023-04-18T05:50:03.755Z,95805.4609
2023-04-18T05:51:04.712Z,95805.3047
2023-04-18T05:52:05.750Z,95802.9219
2023-04-18T05:53:06.809Z,95803.0000
2023-04-18T05:54:07.873Z,95802.9219
2023-04-18T05:55:08.936Z,95803.4609
2023-04-18T05:56:09.958Z,95803.5391
2023-04-18T05:57:10.971Z,95806.8438
2023-04-18T05:58:12.290Z,95804.3828
2023-04-18T05:59:13.046Z,95805.7656
2023-04-18T06:00:14.187Z,95805.5391
2023-04-18T06:01:15.342Z,95806.7656
2023-04-18T06:02:16.165Z,95807.0781
2023-04-18T06:03:17.543Z,95807.0781
2023-04-18T06:04:18.464Z,95808.0000
2023-04-18T06:05:19.719Z,95808.8438
2023-04-18T06:06:20.254Z,95807.7656
2023-04-18T06:07:21.306Z,95809.4609
2023-04-18T06:08:22.344Z,95810.8438
2023-04-18T06:09:23.412Z,95810.6953
2023-04-18T06:10:24.467Z,95810.1562
2023-04-18T06:11:25.509Z,95812.3047
2023-04-18T06:12:26.524Z,95814.6953
2023-04-18T06:13:27.556Z,95813.2344
2023-04-18T06:14:28.581Z,95812.8438
2023-04-18T06:15:29.665Z,95813.5391
2023-04-18T06:16:30.733Z,95814.3828
2023-04-18T06:17:31.743Z,95815.8438
2023-04-18T06:18:32.749Z,95817.4609
2023-04-18T06:19:33.803Z,95818.2344
2023-04-18T06:20:34.826Z,95819.0781
2023-04-18T06:21:35.851Z,95821.2344
2023-04-18T06:22:36.914Z,95820.0781
2023-04-18T06:23:37.958Z,95820.3828
2023-04-18T06:24:38.966Z,95821.6953
2023-04-18T06:25:40.012Z,95823.1562
2023-04-18T06:26:41.057Z,95822.0781
2023-04-18T06:27:42.092Z,95824.0781
2023-04-18T06:28:43.118Z,95825.6172
2023-04-18T06:29:44.154Z,95824.3828
2023-04-18T06:30:45.151Z,95822.6172
2023-04-18T06:31:46.307Z,95820.9219
2023-04-18T06:32:47.361Z,95821.7656
2023-04-18T06:33:48.258Z,95823.6172
2023-04-18T06:34:49.310Z,95824.3828
2023-04-18T06:35:50.359Z,95823.6172
2023-04-18T06:36:51.410Z,95823.6953
2023-04-18T06:37:52.640Z,95823.2344
2023-04-18T06:38:53.558Z,95820.3828
2023-04-18T06:39:54.650Z,95820.0781
2023-04-18T06:40:55.663Z,95821.8438
2023-04-18T06:41:56.735Z,95822.3047
2023-04-18T06:42:57.710Z,95822.6172
2023-04-18T06:44:04.229Z,95824.2344
2023-04-18T06:44:59.811Z,95825.6953
2023-04-18T06:46:00.852Z,95826.7656
2023-04-18T06:47:02.162Z,95825.3047
2023-04-18T06:48:02.948Z,95824.8438
2023-04-18T06:49:03.977Z,95825.5391
2023-04-18T06:50:04.988Z,95826.5391
2023-04-18T06:51:06.045Z,95827.0000
2023-04-18T06:52:07.140Z,95826.9219
2023-04-18T06:53:08.171Z,95825.8438
2023-04-18T06:54:09.166Z,95826.0000
2023-04-18T06:55:10.166Z,95828.3047
2023-04-18T06:56:11.231Z,95827.6172
2023-04-18T06:57:12.290Z,95828.2344
2023-04-18T06:58:13.289Z,95828.7656
2023-04-18T06:59:14.514Z,95829.2344
2023-04-18T07:00:15.395Z,95828.5391
2023-04-18T07:01:16.412Z,95826.3047
2023-04-18T07:02:17.498Z,95826.7656
2023-04-18T07:03:18.745Z,95827.6172
2023-04-18T07:04:19.870Z,95828.7656
2023-04-18T07:05:20.518Z,95829.0000
2023-04-18T07:06:21.613Z,95829.8438
2023-04-18T07:07:22.636Z,95830.4609
2023-04-18T07:08:23.654Z,95829.0000
2023-04-18T07:09:24.716Z,95830.5391
2023-04-18T07:10:25.735Z,95830.1562
2023-04-18T07:11:26.843Z,95830.8438
2023-04-18T07:12:27.929Z,95828.4609
2023-04-18T07:13:28.912Z,95829.0000
2023-04-18T07:14:30.820Z,95829.3828
2023-04-18T07:15:31.005Z,95830.7656
2023-04-18T07:16:32.067Z,95830.3047
2023-04-18T07:17:33.168Z,95828.5391
2023-04-18T07:18:38.117Z,95828.6172
2023-04-18T07:19:35.145Z,95829.2344
2023-04-18T07:20:36.195Z,95827.0781
2023-04-18T07:21:37.111Z,95827.8438
2023-04-18T07:22:38.276Z,95827.2344
2023-04-18T07:23:39.317Z,95827.3047
2023-04-18T07:24:40.331Z,95825.8438
2023-04-18T07:25:41.352Z,95826.1562
2023-04-18T07:26:42.398Z,95826.9219
2023-04-18T07:27:43.462Z,95827.4609
2023-04-18T07:28:44.531Z,95828.2344
2023-04-18T07:29:45.525Z,95829.1562
2023-04-18T07:30:46.578Z,95829.5391
2023-04-18T07:31:47.556Z,95828.7656
2023-04-18T07:32:48.754Z,95830.3828
2023-04-18T07:33:49.645Z,95831.2344
2023-04-18T07:34:50.678Z,95831.2344
2023-04-18T07:35:51.739Z,95833.3047
2023-04-18T07:36:52.769Z,95834.5391
2023-04-18T07:37:53.820Z,95833.5391
2023-04-18T07:38:54.848Z,95833.6953
2023-04-18T07:39:56.062Z,95834.7656
2023-04-18T07:40:56.885Z,95836.1562
2023-04-18T07:41:57.872Z,95838.0000
2023-04-18T07:42:59.045Z,95835.3047
2023-04-18T07:43:59.975Z,95838.0000
2023-04-18T07:45:00.999Z,95836.3047
2023-04-18T07:46:02.632Z,95835.3047
2023-04-18T07:47:02.994Z,95836.2344
2023-04-18T07:48:04.127Z,95837.0781
2023-04-18T07:49:05.068Z,95837.0781
2023-04-18T07:50:06.109Z,95839.4609
2023-04-18T07:51:07.589Z,95838.6953
2023-04-18T07:52:08.162Z,95837.7656
2023-04-18T07:53:09.235Z,95838.2344
2023-04-18T07:54:10.242Z,95838.9219
2023-04-18T07:55:11.292Z,95840.0000
2023-04-18T07:56:12.316Z,95841.7656
2023-04-18T07:57:13.822Z,95839.5391
2023-04-18T07:58:14.380Z,95842.7656
2023-04-18T07:59:15.732Z,95847.4609
2023-04-18T08:00:16.467Z,95847.0781
2023-04-18T08:01:17.522Z,95846.0000
2023-04-18T08:02:18.560Z,95845.6172
2023-04-18T08:03:20.113Z,95846.4609
2023-04-18T08:04:20.704Z,95849.0000
2023-04-18T08:05:21.673Z,95853.1562
2023-04-18T08:06:22.646Z,95851.6172
2023-04-18T08:07:23.700Z,95852.3828
2023-04-18T08:08:24.799Z,95850.3047
2023-04-18T08:09:25.805Z,95849.3828
2023-04-18T08:10:26.882Z,95850.8438
2023-04-18T08:11:27.895Z,95850.1562
2023-04-18T08:12:28.922Z,95850.0000
2023-04-18T08:13:30.012Z,95849.2344
2023-04-18T08:14:30.947Z,95848.9219
2023-04-18T08:15:32.028Z,95849.8438
2023-04-18T08:16:33.078Z,95848.4609
2023-04-18T08:17:34.137Z,95850.3828
2023-04-18T08:18:35.179Z,95851.0000
2023-04-18T08:19:36.159Z,95852.6172
2023-04-18T08:20:37.278Z,95849.6172
2023-04-18T08:21:38.221Z,95847.4609
2023-04-18T08:22:49.981Z,95846.8438
2023-04-18T08:23:40.342Z,95851.7656
2023-04-18T08:24:44.549Z,95850.2344
2023-04-18T08:25:42.355Z,95848.5391
2023-04-18T08:26:43.436Z,95850.2344
2023-04-18T08:27:44.431Z,95849.6172
2023-04-18T08:28:46.484Z,95849.9219
2023-04-18T08:29:46.566Z,95851.0781
2023-04-18T08:30:47.562Z,95849.3828
2023-04-18T08:31:48.649Z,95846.0781
2023-04-18T08:32:49.817Z,95847.4609
2023-04-18T08:33:50.699Z,95849.6953
2023-04-18T08:34:51.746Z,95851.7656
2023-04-18T08:35:52.721Z,95854.5391
2023-04-18T08:36:53.785Z,95856.3828
2023-04-18T08:37:54.789Z,95855.4609
2023-04-18T08:38:55.873Z,95854.7656
2023-04-18T08:39:56.869Z,95859.1562
2023-04-18T08:40:57.879Z,95856.3047
2023-04-18T08:41:58.948Z,95858.2344
2023-04-18T08:43:00.008Z,95858.4609
2023-04-18T08:44:01.182Z,95857.3828
2023-04-18T08:45:02.182Z,95861.6953
2023-04-18T08:46:03.375Z,95859.8438
2023-04-18T08:47:04.253Z,95862.1562
2023-04-18T08:48:05.279Z,95861.9219
2023-04-18T08:49:06.425Z,95858.9219
2023-04-18T08:50:07.321Z,95859.1562
2023-04-18T08:51:08.356Z,95861.5391
2023-04-18T08:52:09.405Z,95861.2344
2023-04-18T08:53:10.442Z,95862.6172
2023-04-18T08:54:11.586Z,95866.2344
2023-04-18T08:55:12.529Z,95865.5391
2023-04-18T08:56:13.577Z,95864.6953
2023-04-18T08:57:14.590Z,95863.4609
2023-04-18T08:58:15.679Z,95864.4609
2023-04-18T08:59:16.694Z,95866.4609
2023-04-18T09:00:17.735Z,95865.0781
2023-04-18T09:01:18.769Z,95863.0000
2023-04-18T09:02:19.817Z,95863.4609
2023-04-18T09:03:20.805Z,95863.4609
2023-04-18T09:04:22.076Z,95865.1562
2023-04-18T09:05:22.883Z,95867.4609
2023-04-18T09:06:24.379Z,95864.4609
2023-04-18T09:07:24.978Z,95862.9219
2023-04-18T09:08:26.037Z,95865.6172
2023-04-18T09:09:27.089Z,95869.7656
2023-04-18T09:10:28.142Z,95872.2344
2023-04-18T09:11:29.525Z,95869.6172
2023-04-18T09:12:30.212Z,95868.0781
2023-04-18T09:13:31.243Z,95869.2344
2023-04-18T09:14:32.301Z,95867.6953
2023-04-18T09:15:33.315Z,95866.8438
2023-04-18T09:16:34.478Z,95867.1562
2023-04-18T09:17:35.417Z,95865.9219
2023-04-18T09:18:36.412Z,95866.8438
2023-04-18T09:19:37.546Z,95868.0000
2023-04-18T09:20:38.615Z,95866.3047
2023-04-18T09:21:39.569Z,95863.3047
2023-04-18T09:22:40.600Z,95864.7656
2023-04-18T09:23:41.610Z,95865.0781
2023-04-18T09:24:42.615Z,95863.2344
2023-04-18T09:25:44.958Z,95862.6953
2023-04-18T09:26:44.654Z,95865.3047
2023-04-18T09:27:45.705Z,95862.9219
2023-04-18T09:28:46.738Z,95862.6172
2023-04-18T09:29:47.815Z,95860.9219
2023-04-18T09:30:48.828Z,95859.7656
2023-04-18T09:31:49.873Z,95864.0000
2023-04-18T09:32:50.967Z,95865.1562
2023-04-18T09:33:51.952Z,95865.1562
2023-04-18T09:34:53.152Z,95866.4609
2023-04-18T09:35:54.010Z,95869.3828
2023-04-18T09:36:55.104Z,95866.8438
2023-04-18T09:37:56.084Z,95862.0000
2023-04-18T09:38:57.458Z,95865.9219
2023-04-18T09:39:58.220Z,95865.4609
2023-04-18T09:40:59.183Z,95866.4609
2023-04-18T09:42:00.250Z,95866.1562
2023-04-18T09:43:01.277Z,95866.3828
2023-04-18T09:44:02.371Z,95865.9219
2023-04-18T09:45:03.452Z,95870.4609
2023-04-18T09:46:04.515Z,95871.1562
2023-04-18T09:47:05.459Z,95873.9219
2023-04-18T09:48:06.537Z,95875.6172
2023-04-18T09:49:09.676Z,95875.2344
2023-04-18T09:50:08.662Z,95872.8438
2023-04-18T09:51:09.689Z,95870.6172
2023-04-18T09:52:10.689Z,95872.3047
2023-04-18T09:53:11.701Z,95871.3047
2023-04-18T09:54:12.931Z,95875.3047
2023-04-18T09:55:13.902Z,95878.0781
2023-04-18T09:56:14.846Z,95877.3047
2023-04-18T09:57:15.874Z,95877.6172
2023-04-18T09:58:16.944Z,95873.5391
2023-04-18T09:59:20.507Z,95874.2344
2023-04-18T10:00:18.993Z,95871.3828
2023-04-18T10:01:20.135Z,95870.6953
2023-04-18T10:02:21.192Z,95870.6953
2023-04-18T10:03:22.256Z,95869.5391
2023-04-18T10:04:23.213Z,95869.0781
2023-04-18T10:05:24.250Z,95873.9219
2023-04-18T10:06:25.238Z,95873.1562
2023-04-18T10:07:26.325Z,95873.3828
2023-04-18T10:08:27.356Z,95871.3047
2023-04-18T10:09:28.455Z,95870.6953
2023-04-18T10:10:29.530Z,95871.6953
2023-04-18T10:11:30.546Z,95877.1562
2023-04-18T10:12:31.508Z,95873.3047
2023-04-18T10:13:32.568Z,95871.2344
2023-04-18T10:14:33.602Z,95874.0000
2023-04-18T10:15:34.638Z,95874.0781
2023-04-18T10:16:36.407Z,95877.7656
2023-04-18T10:17:36.762Z,95879.5391
2023-04-18T10:18:38.087Z,95876.9219
2023-04-18T10:19:38.791Z,95877.5391
2023-04-18T10:20:40.083Z,95873.2344
2023-04-18T10:21:41.001Z,95875.7656
2023-04-18T10:22:41.935Z,95879.2344
2023-04-18T10:23:42.949Z,95877.4609
2023-04-18T10:24:44.008Z,95873.2344
2023-04-18T10:25:45.008Z,95874.1562
2023-04-18T10:26:46.156Z,95875.5391
2023-04-18T10:27:47.177Z,95873.4609
2023-04-18T10:28:48.180Z,95874.6953
2023-04-18T10:29:49.183Z,95879.0000
2023-04-18T10:30:50.242Z,95882.8438
2023-04-18T10:31:51.383Z,95876.3828
2023-04-18T10:32:52.336Z,95878.9219
2023-04-18T10:34:04.014Z,95882.6172
2023-04-18T10:34:54.433Z,95879.0000
2023-04-18T10:35:55.401Z,95880.3828
2023-04-18T10:36:56.475Z,95879.9219
2023-04-18T10:37:57.481Z,95876.7656
2023-04-18T10:38:58.520Z,95872.8438
2023-04-18T10:39:59.532Z,95876.7656
2023-04-18T10:41:00.594Z,95877.0781
2023-04-18T10:42:01.657Z,95875.3047
2023-04-18T10:43:02.779Z,95880.1562
2023-04-18T10:44:03.694Z,95876.1562
2023-04-18T10:45:04.729Z,95873.9219
2023-04-18T10:46:07.439Z,95876.1562
2023-04-18T10:47:06.921Z,95871.2344
2023-04-18T10:48:07.873Z,95872.0000
2023-04-18T10:49:08.886Z,95870.9219
2023-04-18T10:50:09.926Z,95871.1562
2023-04-18T10:51:11.098Z,95863.2344
2023-04-18T10:52:13.364Z,95867.4609
2023-04-18T10:53:13.072Z,95869.7656
2023-04-18T10:54:14.212Z,95871.9219
2023-04-18T10:55:15.168Z,95865.1562
2023-04-18T10:56:16.190Z,95863.9219
2023-04-18T10:57:17.302Z,95862.6172
2023-04-18T10:58:18.168Z,95861.3828
2023-04-18T10:59:19.234Z,95859.5391
2023-04-18T11:00:20.416Z,95862.4609
2023-04-18T11:01:21.331Z,95861.8438
2023-04-18T11:02:22.396Z,95860.3047
2023-04-18T11:03:23.506Z,95858.9219
2023-04-18T11:04:24.510Z,95859.0781
2023-04-18T11:05:25.463Z,95860.9219
2023-04-18T11:06:26.479Z,95857.6953
2023-04-18T11:07:29.921Z,95859.8438
2023-04-18T11:08:28.572Z,95864.1562
2023-04-18T11:09:29.614Z,95858.0000
2023-04-18T11:10:30.667Z,95854.4609
2023-04-18T11:11:31.763Z,95859.3828
2023-04-18T11:12:32.826Z,95857.1562
2023-04-18T11:13:33.850Z,95854.7656
2023-04-18T11:14:35.016Z,95855.6172
2023-04-18T11:15:36.105Z,95853.7656
2023-04-18T11:16:36.979Z,95854.0000